sensor_id;sensor_type;location;lat;lon;timestamp;P1;durP1;ratioP1;P2;durP2;ratioP2
16963;SDS011;8598;50.508;10.436;2023-08-06T00:01:55;2.93;;;2.73;;
16963;SDS011;8598;50.508;10.436;2023-08-06T00:04:22;5.93;;;3.47;;
16963;SDS011;8598;50.508;10.436;2023-08-06T00:06:49;3.47;;;3.17;;
16963;SDS011;8598;50.508;10.436;2023-08-06T00:09:15;8.40;;;4.00;;
16963;SDS011;8598;50.508;10.436;2023-08-06T00:11:42;4.00;;;3.60;;
16963;SDS011;8598;50.508;10.436;2023-08-06T00:14:11;5.63;;;3.33;;
16963;SDS011;8598;50.508;10.436;2023-08-06T00:16:42;3.27;;;3.00;;
16963;SDS011;8598;50.508;10.436;2023-08-06T00:19:09;4.73;;;2.70;;
16963;SDS011;8598;50.508;10.436;2023-08-06T00:21:36;4.23;;;3.90;;
16963;SDS011;8598;50.508;10.436;2023-08-06T00:24:02;4.13;;;3.77;;
16963;SDS011;8598;50.508;10.436;2023-08-06T00:26:29;5.70;;;4.07;;
16963;SDS011;8598;50.508;10.436;2023-08-06T00:28:56;5.73;;;3.70;;
16963;SDS011;8598;50.508;10.436;2023-08-06T00:31:22;4.83;;;4.37;;
16963;SDS011;8598;50.508;10.436;2023-08-06T00:33:50;4.70;;;4.23;;
16963;SDS011;8598;50.508;10.436;2023-08-06T00:36:17;4.33;;;3.97;;
16963;SDS011;8598;50.508;10.436;2023-08-06T00:38:44;4.73;;;4.23;;
16963;SDS011;8598;50.508;10.436;2023-08-06T00:41:10;4.93;;;4.47;;
16963;SDS011;8598;50.508;10.436;2023-08-06T00:43:37;4.43;;;4.03;;
16963;SDS011;8598;50.508;10.436;2023-08-06T00:46:04;6.80;;;3.33;;
16963;SDS011;8598;50.508;10.436;2023-08-06T00:48:31;3.77;;;3.33;;
16963;SDS011;8598;50.508;10.436;2023-08-06T00:50:59;4.20;;;3.90;;
16963;SDS011;8598;50.508;10.436;2023-08-06T00:53:27;7.37;;;4.27;;
16963;SDS011;8598;50.508;10.436;2023-08-06T00:55:54;4.93;;;4.13;;
16963;SDS011;8598;50.508;10.436;2023-08-06T00:58:21;4.10;;;3.70;;
16963;SDS011;8598;50.508;10.436;2023-08-06T01:00:48;5.47;;;3.70;;
16963;SDS011;8598;50.508;10.436;2023-08-06T01:03:14;5.33;;;3.60;;
16963;SDS011;8598;50.508;10.436;2023-08-06T01:05:41;7.07;;;3.73;;
16963;SDS011;8598;50.508;10.436;2023-08-06T01:08:16;5.60;;;4.10;;
16963;SDS011;8598;50.508;10.436;2023-08-06T01:10:55;3.37;;;3.07;;
16963;SDS011;8598;50.508;10.436;2023-08-06T01:13:32;4.40;;;4.00;;
16963;SDS011;8598;50.508;10.436;2023-08-06T01:16:03;6.10;;;3.33;;
16963;SDS011;8598;50.508;10.436;2023-08-06T01:18:31;4.17;;;3.33;;
16963;SDS011;8598;50.508;10.436;2023-08-06T01:20:59;3.60;;;3.30;;
16963;SDS011;8598;50.508;10.436;2023-08-06T01:23:26;5.40;;;3.27;;
16963;SDS011;8598;50.508;10.436;2023-08-06T01:25:55;6.20;;;4.10;;
16963;SDS011;8598;50.508;10.436;2023-08-06T01:28:27;3.70;;;3.40;;
16963;SDS011;8598;50.508;10.436;2023-08-06T01:31:03;5.67;;;3.43;;
16963;SDS011;8598;50.508;10.436;2023-08-06T01:33:35;7.60;;;3.63;;
16963;SDS011;8598;50.508;10.436;2023-08-06T01:36:06;4.83;;;4.40;;
16963;SDS011;8598;50.508;10.436;2023-08-06T01:38:33;4.37;;;3.97;;
16963;SDS011;8598;50.508;10.436;2023-08-06T01:40:59;5.83;;;3.20;;
16963;SDS011;8598;50.508;10.436;2023-08-06T01:43:26;3.93;;;2.93;;
16963;SDS011;8598;50.508;10.436;2023-08-06T01:45:53;3.53;;;3.23;;
16963;SDS011;8598;50.508;10.436;2023-08-06T01:48:19;6.07;;;3.57;;
16963;SDS011;8598;50.508;10.436;2023-08-06T01:50:46;5.30;;;3.50;;
16963;SDS011;8598;50.508;10.436;2023-08-06T01:53:14;4.23;;;3.40;;
16963;SDS011;8598;50.508;10.436;2023-08-06T01:55:41;3.80;;;3.40;;
16963;SDS011;8598;50.508;10.436;2023-08-06T01:58:07;4.20;;;3.80;;
16963;SDS011;8598;50.508;10.436;2023-08-06T02:00:34;5.80;;;3.73;;
16963;SDS011;8598;50.508;10.436;2023-08-06T02:03:01;4.73;;;3.97;;
16963;SDS011;8598;50.508;10.436;2023-08-06T02:05:27;7.77;;;3.93;;
16963;SDS011;8598;50.508;10.436;2023-08-06T02:07:54;5.20;;;3.93;;
16963;SDS011;8598;50.508;10.436;2023-08-06T02:10:22;4.60;;;4.00;;
16963;SDS011;8598;50.508;10.436;2023-08-06T02:12:49;5.43;;;4.43;;
16963;SDS011;8598;50.508;10.436;2023-08-06T02:15:15;5.47;;;4.10;;
16963;SDS011;8598;50.508;10.436;2023-08-06T02:17:42;5.67;;;3.73;;
16963;SDS011;8598;50.508;10.436;2023-08-06T02:20:09;5.70;;;4.63;;
16963;SDS011;8598;50.508;10.436;2023-08-06T02:22:36;8.40;;;3.77;;
16963;SDS011;8598;50.508;10.436;2023-08-06T02:25:03;4.23;;;3.83;;
16963;SDS011;8598;50.508;10.436;2023-08-06T02:27:31;3.80;;;3.50;;
16963;SDS011;8598;50.508;10.436;2023-08-06T02:29:58;7.17;;;4.20;;
16963;SDS011;8598;50.508;10.436;2023-08-06T02:32:25;4.17;;;3.50;;
16963;SDS011;8598;50.508;10.436;2023-08-06T02:34:52;4.57;;;3.50;;
16963;SDS011;8598;50.508;10.436;2023-08-06T02:37:18;4.70;;;4.20;;
16963;SDS011;8598;50.508;10.436;2023-08-06T02:39:45;6.43;;;3.60;;
16963;SDS011;8598;50.508;10.436;2023-08-06T02:42:12;4.17;;;3.60;;
16963;SDS011;8598;50.508;10.436;2023-08-06T02:44:40;4.13;;;3.43;;
16963;SDS011;8598;50.508;10.436;2023-08-06T02:47:06;4.40;;;3.43;;
16963;SDS011;8598;50.508;10.436;2023-08-06T02:49:33;5.30;;;3.50;;
16963;SDS011;8598;50.508;10.436;2023-08-06T02:52:00;3.97;;;3.60;;
16963;SDS011;8598;50.508;10.436;2023-08-06T02:54:26;4.70;;;3.97;;
16963;SDS011;8598;50.508;10.436;2023-08-06T02:56:53;5.00;;;3.83;;
16963;SDS011;8598;50.508;10.436;2023-08-06T02:59:20;6.93;;;4.17;;
16963;SDS011;8598;50.508;10.436;2023-08-06T03:01:48;4.23;;;3.87;;
16963;SDS011;8598;50.508;10.436;2023-08-06T03:04:14;4.43;;;4.03;;
16963;SDS011;8598;50.508;10.436;2023-08-06T03:06:43;5.93;;;4.60;;
16963;SDS011;8598;50.508;10.436;2023-08-06T03:09:09;6.03;;;4.00;;
16963;SDS011;8598;50.508;10.436;2023-08-06T03:11:35;4.67;;;3.37;;
16963;SDS011;8598;50.508;10.436;2023-08-06T03:14:02;7.47;;;3.83;;
16963;SDS011;8598;50.508;10.436;2023-08-06T03:16:28;5.77;;;4.07;;
16963;SDS011;8598;50.508;10.436;2023-08-06T03:18:56;4.70;;;3.60;;
16963;SDS011;8598;50.508;10.436;2023-08-06T03:21:23;4.93;;;3.23;;
16963;SDS011;8598;50.508;10.436;2023-08-06T03:23:50;4.17;;;3.77;;
16963;SDS011;8598;50.508;10.436;2023-08-06T03:26:16;5.13;;;3.90;;
16963;SDS011;8598;50.508;10.436;2023-08-06T03:28:43;4.33;;;3.40;;
16963;SDS011;8598;50.508;10.436;2023-08-06T03:31:10;4.90;;;3.83;;
16963;SDS011;8598;50.508;10.436;2023-08-06T03:33:36;5.00;;;3.40;;
16963;SDS011;8598;50.508;10.436;2023-08-06T03:36:05;6.73;;;4.13;;
16963;SDS011;8598;50.508;10.436;2023-08-06T03:38:32;7.97;;;4.67;;
16963;SDS011;8598;50.508;10.436;2023-08-06T03:40:58;4.97;;;4.47;;
16963;SDS011;8598;50.508;10.436;2023-08-06T03:43:25;6.30;;;4.60;;
16963;SDS011;8598;50.508;10.436;2023-08-06T03:45:52;6.70;;;4.60;;
16963;SDS011;8598;50.508;10.436;2023-08-06T03:48:18;11.03;;;4.73;;
16963;SDS011;8598;50.508;10.436;2023-08-06T03:50:45;4.37;;;3.97;;
16963;SDS011;8598;50.508;10.436;2023-08-06T03:53:14;5.83;;;3.80;;
16963;SDS011;8598;50.508;10.436;2023-08-06T03:55:41;4.80;;;4.30;;
16963;SDS011;8598;50.508;10.436;2023-08-06T03:58:08;6.87;;;3.70;;
16963;SDS011;8598;50.508;10.436;2023-08-06T04:00:35;6.60;;;3.97;;
16963;SDS011;8598;50.508;10.436;2023-08-06T04:03:01;7.50;;;5.27;;
16963;SDS011;8598;50.508;10.436;2023-08-06T04:05:30;6.10;;;4.33;;
16963;SDS011;8598;50.508;10.436;2023-08-06T04:07:57;5.10;;;4.70;;
16963;SDS011;8598;50.508;10.436;2023-08-06T04:10:26;7.80;;;4.73;;
16963;SDS011;8598;50.508;10.436;2023-08-06T04:12:52;5.47;;;3.97;;
16963;SDS011;8598;50.508;10.436;2023-08-06T04:15:19;4.60;;;4.20;;
16963;SDS011;8598;50.508;10.436;2023-08-06T04:17:46;6.23;;;3.93;;
16963;SDS011;8598;50.508;10.436;2023-08-06T04:20:12;5.53;;;4.03;;
16963;SDS011;8598;50.508;10.436;2023-08-06T04:22:39;4.53;;;4.13;;
16963;SDS011;8598;50.508;10.436;2023-08-06T04:25:06;4.83;;;4.43;;
16963;SDS011;8598;50.508;10.436;2023-08-06T04:27:34;7.37;;;4.17;;
16963;SDS011;8598;50.508;10.436;2023-08-06T04:30:03;5.50;;;4.70;;
16963;SDS011;8598;50.508;10.436;2023-08-06T04:32:30;6.70;;;4.10;;
16963;SDS011;8598;50.508;10.436;2023-08-06T04:34:57;4.73;;;4.17;;
16963;SDS011;8598;50.508;10.436;2023-08-06T04:37:23;5.90;;;4.83;;
16963;SDS011;8598;50.508;10.436;2023-08-06T04:39:50;5.60;;;4.20;;
16963;SDS011;8598;50.508;10.436;2023-08-06T04:42:17;7.10;;;4.50;;
16963;SDS011;8598;50.508;10.436;2023-08-06T04:44:45;5.30;;;4.70;;
16963;SDS011;8598;50.508;10.436;2023-08-06T04:47:11;7.97;;;4.33;;
16963;SDS011;8598;50.508;10.436;2023-08-06T04:49:38;5.50;;;4.90;;
16963;SDS011;8598;50.508;10.436;2023-08-06T04:52:05;8.17;;;5.67;;
16963;SDS011;8598;50.508;10.436;2023-08-06T04:54:32;4.77;;;4.20;;
16963;SDS011;8598;50.508;10.436;2023-08-06T04:56:59;5.10;;;4.70;;
16963;SDS011;8598;50.508;10.436;2023-08-06T04:59:26;7.07;;;5.43;;
16963;SDS011;8598;50.508;10.436;2023-08-06T05:01:54;5.27;;;4.77;;
16963;SDS011;8598;50.508;10.436;2023-08-06T05:04:21;17.27;;;4.10;;
16963;SDS011;8598;50.508;10.436;2023-08-06T05:06:48;6.27;;;5.30;;
16963;SDS011;8598;50.508;10.436;2023-08-06T05:09:14;7.33;;;4.80;;
16963;SDS011;8598;50.508;10.436;2023-08-06T05:11:41;5.60;;;5.10;;
16963;SDS011;8598;50.508;10.436;2023-08-06T05:14:08;7.50;;;4.57;;
16963;SDS011;8598;50.508;10.436;2023-08-06T05:16:34;4.83;;;4.43;;
16963;SDS011;8598;50.508;10.436;2023-08-06T05:19:02;8.77;;;5.33;;
16963;SDS011;8598;50.508;10.436;2023-08-06T05:21:29;8.17;;;4.77;;
16963;SDS011;8598;50.508;10.436;2023-08-06T05:23:56;5.57;;;4.77;;
16963;SDS011;8598;50.508;10.436;2023-08-06T05:26:22;7.87;;;4.20;;
16963;SDS011;8598;50.508;10.436;2023-08-06T05:28:49;6.77;;;4.10;;
16963;SDS011;8598;50.508;10.436;2023-08-06T05:31:16;4.93;;;4.40;;
16963;SDS011;8598;50.508;10.436;2023-08-06T05:33:42;4.97;;;4.57;;
16963;SDS011;8598;50.508;10.436;2023-08-06T05:36:10;5.10;;;4.63;;
16963;SDS011;8598;50.508;10.436;2023-08-06T05:38:37;6.03;;;5.07;;
16963;SDS011;8598;50.508;10.436;2023-08-06T05:41:04;7.90;;;5.00;;
16963;SDS011;8598;50.508;10.436;2023-08-06T05:43:31;5.17;;;4.67;;
16963;SDS011;8598;50.508;10.436;2023-08-06T05:45:57;5.77;;;4.40;;
16963;SDS011;8598;50.508;10.436;2023-08-06T05:48:24;4.87;;;4.37;;
16963;SDS011;8598;50.508;10.436;2023-08-06T05:50:52;6.73;;;4.87;;
16963;SDS011;8598;50.508;10.436;2023-08-06T05:53:20;6.00;;;5.13;;
16963;SDS011;8598;50.508;10.436;2023-08-06T05:55:47;5.00;;;4.30;;
16963;SDS011;8598;50.508;10.436;2023-08-06T05:58:14;5.13;;;4.63;;
16963;SDS011;8598;50.508;10.436;2023-08-06T06:00:41;5.37;;;4.90;;
16963;SDS011;8598;50.508;10.436;2023-08-06T06:03:07;7.13;;;4.70;;
16963;SDS011;8598;50.508;10.436;2023-08-06T06:05:34;5.83;;;5.20;;
16963;SDS011;8598;50.508;10.436;2023-08-06T06:08:03;7.47;;;5.20;;
16963;SDS011;8598;50.508;10.436;2023-08-06T06:10:32;7.23;;;5.57;;
16963;SDS011;8598;50.508;10.436;2023-08-06T06:12:58;5.43;;;4.63;;
16963;SDS011;8598;50.508;10.436;2023-08-06T06:15:25;7.27;;;4.83;;
16963;SDS011;8598;50.508;10.436;2023-08-06T06:17:52;5.27;;;4.77;;
16963;SDS011;8598;50.508;10.436;2023-08-06T06:20:18;7.20;;;5.03;;
16963;SDS011;8598;50.508;10.436;2023-08-06T06:22:45;8.20;;;5.73;;
16963;SDS011;8598;50.508;10.436;2023-08-06T06:25:11;5.10;;;4.40;;
16963;SDS011;8598;50.508;10.436;2023-08-06T06:27:39;6.90;;;5.37;;
16963;SDS011;8598;50.508;10.436;2023-08-06T06:30:07;6.80;;;4.20;;
16963;SDS011;8598;50.508;10.436;2023-08-06T06:32:34;7.43;;;5.27;;
16963;SDS011;8598;50.508;10.436;2023-08-06T06:35:01;11.97;;;4.07;;
16963;SDS011;8598;50.508;10.436;2023-08-06T06:37:28;4.90;;;3.83;;
16963;SDS011;8598;50.508;10.436;2023-08-06T06:39:54;5.43;;;3.50;;
16963;SDS011;8598;50.508;10.436;2023-08-06T06:42:21;6.90;;;3.80;;
16963;SDS011;8598;50.508;10.436;2023-08-06T06:44:50;4.77;;;3.37;;
16963;SDS011;8598;50.508;10.436;2023-08-06T06:47:16;4.37;;;3.97;;
16963;SDS011;8598;50.508;10.436;2023-08-06T06:49:43;4.47;;;2.90;;
16963;SDS011;8598;50.508;10.436;2023-08-06T06:52:10;2.93;;;2.70;;
16963;SDS011;8598;50.508;10.436;2023-08-06T06:54:37;3.13;;;2.90;;
16963;SDS011;8598;50.508;10.436;2023-08-06T06:57:04;3.20;;;2.50;;
16963;SDS011;8598;50.508;10.436;2023-08-06T06:59:31;2.97;;;2.77;;
16963;SDS011;8598;50.508;10.436;2023-08-06T07:01:59;3.20;;;2.57;;
16963;SDS011;8598;50.508;10.436;2023-08-06T07:04:26;2.77;;;2.33;;
16963;SDS011;8598;50.508;10.436;2023-08-06T07:06:52;3.03;;;2.10;;
16963;SDS011;8598;50.508;10.436;2023-08-06T07:09:19;3.83;;;2.83;;
16963;SDS011;8598;50.508;10.436;2023-08-06T07:11:46;2.50;;;2.10;;
16963;SDS011;8598;50.508;10.436;2023-08-06T07:14:12;3.73;;;2.60;;
16963;SDS011;8598;50.508;10.436;2023-08-06T07:16:39;3.20;;;2.67;;
16963;SDS011;8598;50.508;10.436;2023-08-06T07:19:07;2.70;;;2.50;;
16963;SDS011;8598;50.508;10.436;2023-08-06T07:21:34;3.53;;;2.40;;
16963;SDS011;8598;50.508;10.436;2023-08-06T07:24:01;3.30;;;2.60;;
16963;SDS011;8598;50.508;10.436;2023-08-06T07:26:28;3.53;;;2.30;;
16963;SDS011;8598;50.508;10.436;2023-08-06T07:28:54;3.20;;;2.47;;
16963;SDS011;8598;50.508;10.436;2023-08-06T07:31:21;2.90;;;2.70;;
16963;SDS011;8598;50.508;10.436;2023-08-06T07:33:48;7.50;;;2.13;;
16963;SDS011;8598;50.508;10.436;2023-08-06T07:36:16;2.30;;;2.10;;
16963;SDS011;8598;50.508;10.436;2023-08-06T07:38:42;4.97;;;2.40;;
16963;SDS011;8598;50.508;10.436;2023-08-06T07:41:09;5.30;;;2.00;;
16963;SDS011;8598;50.508;10.436;2023-08-06T07:43:36;3.17;;;1.60;;
16963;SDS011;8598;50.508;10.436;2023-08-06T07:46:03;1.90;;;1.70;;
16963;SDS011;8598;50.508;10.436;2023-08-06T07:48:30;3.00;;;1.80;;
16963;SDS011;8598;50.508;10.436;2023-08-06T07:50:57;4.30;;;2.30;;
16963;SDS011;8598;50.508;10.436;2023-08-06T07:53:26;5.03;;;2.00;;
16963;SDS011;8598;50.508;10.436;2023-08-06T07:55:54;2.07;;;1.87;;
16963;SDS011;8598;50.508;10.436;2023-08-06T07:58:21;3.60;;;2.00;;
16963;SDS011;8598;50.508;10.436;2023-08-06T08:00:49;2.63;;;2.00;;
16963;SDS011;8598;50.508;10.436;2023-08-06T08:03:16;2.93;;;1.60;;
16963;SDS011;8598;50.508;10.436;2023-08-06T08:05:43;4.80;;;2.00;;
16963;SDS011;8598;50.508;10.436;2023-08-06T08:08:10;2.30;;;1.63;;
16963;SDS011;8598;50.508;10.436;2023-08-06T08:10:38;3.43;;;1.83;;
16963;SDS011;8598;50.508;10.436;2023-08-06T08:13:05;2.17;;;1.50;;
16963;SDS011;8598;50.508;10.436;2023-08-06T08:15:32;4.03;;;1.97;;
16963;SDS011;8598;50.508;10.436;2023-08-06T08:17:59;5.50;;;1.53;;
16963;SDS011;8598;50.508;10.436;2023-08-06T08:20:26;2.40;;;1.50;;
16963;SDS011;8598;50.508;10.436;2023-08-06T08:22:56;1.87;;;1.50;;
16963;SDS011;8598;50.508;10.436;2023-08-06T08:25:24;2.67;;;1.30;;
16963;SDS011;8598;50.508;10.436;2023-08-06T08:27:52;1.67;;;1.30;;
16963;SDS011;8598;50.508;10.436;2023-08-06T08:30:19;9.23;;;1.27;;
16963;SDS011;8598;50.508;10.436;2023-08-06T08:32:45;2.70;;;1.10;;
16963;SDS011;8598;50.508;10.436;2023-08-06T08:35:13;2.10;;;1.13;;
16963;SDS011;8598;50.508;10.436;2023-08-06T08:37:41;4.80;;;1.60;;
16963;SDS011;8598;50.508;10.436;2023-08-06T08:40:08;2.73;;;1.47;;
16963;SDS011;8598;50.508;10.436;2023-08-06T08:42:35;2.57;;;1.00;;
16963;SDS011;8598;50.508;10.436;2023-08-06T08:45:04;1.77;;;1.30;;
16963;SDS011;8598;50.508;10.436;2023-08-06T08:47:36;3.30;;;1.60;;
16963;SDS011;8598;50.508;10.436;2023-08-06T08:50:05;1.80;;;1.10;;
16963;SDS011;8598;50.508;10.436;2023-08-06T08:52:34;1.90;;;1.13;;
16963;SDS011;8598;50.508;10.436;2023-08-06T08:55:02;1.60;;;1.23;;
16963;SDS011;8598;50.508;10.436;2023-08-06T08:57:29;1.47;;;1.10;;
16963;SDS011;8598;50.508;10.436;2023-08-06T08:59:56;1.30;;;1.20;;
16963;SDS011;8598;50.508;10.436;2023-08-06T09:02:24;1.43;;;1.10;;
16963;SDS011;8598;50.508;10.436;2023-08-06T09:04:54;2.43;;;1.30;;
16963;SDS011;8598;50.508;10.436;2023-08-06T09:07:24;1.37;;;1.23;;
16963;SDS011;8598;50.508;10.436;2023-08-06T09:09:52;1.93;;;1.00;;
16963;SDS011;8598;50.508;10.436;2023-08-06T09:12:20;1.20;;;1.00;;
16963;SDS011;8598;50.508;10.436;2023-08-06T09:14:48;4.70;;;1.03;;
16963;SDS011;8598;50.508;10.436;2023-08-06T09:17:15;1.63;;;1.20;;
16963;SDS011;8598;50.508;10.436;2023-08-06T09:19:46;2.60;;;1.07;;
16963;SDS011;8598;50.508;10.436;2023-08-06T09:22:14;2.60;;;0.60;;
16963;SDS011;8598;50.508;10.436;2023-08-06T09:24:41;2.57;;;0.70;;
16963;SDS011;8598;50.508;10.436;2023-08-06T09:27:12;0.90;;;0.77;;
16963;SDS011;8598;50.508;10.436;2023-08-06T09:29:42;2.40;;;0.70;;
16963;SDS011;8598;50.508;10.436;2023-08-06T09:32:10;0.93;;;0.67;;
16963;SDS011;8598;50.508;10.436;2023-08-06T09:34:38;0.80;;;0.67;;
16963;SDS011;8598;50.508;10.436;2023-08-06T09:37:08;0.50;;;0.50;;
16963;SDS011;8598;50.508;10.436;2023-08-06T09:39:35;2.03;;;0.50;;
16963;SDS011;8598;50.508;10.436;2023-08-06T09:42:02;2.60;;;0.70;;
16963;SDS011;8598;50.508;10.436;2023-08-06T09:44:30;1.93;;;0.67;;
16963;SDS011;8598;50.508;10.436;2023-08-06T09:46:58;0.80;;;0.60;;
16963;SDS011;8598;50.508;10.436;2023-08-06T09:49:26;0.70;;;0.70;;
16963;SDS011;8598;50.508;10.436;2023-08-06T09:51:53;0.60;;;0.60;;
16963;SDS011;8598;50.508;10.436;2023-08-06T09:54:24;0.70;;;0.60;;
16963;SDS011;8598;50.508;10.436;2023-08-06T09:56:52;0.50;;;0.50;;
16963;SDS011;8598;50.508;10.436;2023-08-06T09:59:19;0.63;;;0.63;;
16963;SDS011;8598;50.508;10.436;2023-08-06T10:01:46;1.00;;;0.57;;
16963;SDS011;8598;50.508;10.436;2023-08-06T10:04:14;1.43;;;0.70;;
16963;SDS011;8598;50.508;10.436;2023-08-06T10:06:42;0.43;;;0.43;;
16963;SDS011;8598;50.508;10.436;2023-08-06T10:09:12;0.50;;;0.50;;
16963;SDS011;8598;50.508;10.436;2023-08-06T10:11:40;0.90;;;0.53;;
16963;SDS011;8598;50.508;10.436;2023-08-06T10:14:14;2.27;;;0.60;;
16963;SDS011;8598;50.508;10.436;2023-08-06T10:16:44;0.97;;;0.67;;
16963;SDS011;8598;50.508;10.436;2023-08-06T10:19:13;0.57;;;0.50;;
16963;SDS011;8598;50.508;10.436;2023-08-06T10:21:47;0.40;;;0.40;;
16963;SDS011;8598;50.508;10.436;2023-08-06T10:24:44;0.40;;;0.40;;
16963;SDS011;8598;50.508;10.436;2023-08-06T10:27:13;2.17;;;0.70;;
16963;SDS011;8598;50.508;10.436;2023-08-06T10:29:47;0.80;;;0.57;;
16963;SDS011;8598;50.508;10.436;2023-08-06T10:32:14;0.50;;;0.50;;
16963;SDS011;8598;50.508;10.436;2023-08-06T10:34:56;0.87;;;0.40;;
16963;SDS011;8598;50.508;10.436;2023-08-06T10:37:23;1.03;;;0.60;;
16963;SDS011;8598;50.508;10.436;2023-08-06T10:39:50;2.97;;;0.60;;
16963;SDS011;8598;50.508;10.436;2023-08-06T10:42:22;1.43;;;0.40;;
16963;SDS011;8598;50.508;10.436;2023-08-06T10:45:12;2.10;;;0.40;;
16963;SDS011;8598;50.508;10.436;2023-08-06T10:47:42;0.33;;;0.33;;
16963;SDS011;8598;50.508;10.436;2023-08-06T10:50:11;0.43;;;0.20;;
16963;SDS011;8598;50.508;10.436;2023-08-06T10:52:41;1.90;;;0.30;;
16963;SDS011;8598;50.508;10.436;2023-08-06T10:55:08;0.40;;;0.40;;
16963;SDS011;8598;50.508;10.436;2023-08-06T10:57:36;0.20;;;0.20;;
16963;SDS011;8598;50.508;10.436;2023-08-06T11:00:04;0.60;;;0.30;;
16963;SDS011;8598;50.508;10.436;2023-08-06T11:02:33;1.60;;;0.50;;
16963;SDS011;8598;50.508;10.436;2023-08-06T11:05:04;1.40;;;1.30;;
16963;SDS011;8598;50.508;10.436;2023-08-06T11:07:34;0.40;;;0.40;;
16963;SDS011;8598;50.508;10.436;2023-08-06T11:10:02;0.50;;;0.40;;
16963;SDS011;8598;50.508;10.436;2023-08-06T11:12:30;0.30;;;0.30;;
16963;SDS011;8598;50.508;10.436;2023-08-06T11:14:58;0.40;;;0.40;;
16963;SDS011;8598;50.508;10.436;2023-08-06T11:17:25;0.30;;;0.30;;
16963;SDS011;8598;50.508;10.436;2023-08-06T11:19:54;0.53;;;0.50;;
16963;SDS011;8598;50.508;10.436;2023-08-06T11:22:21;0.40;;;0.40;;
16963;SDS011;8598;50.508;10.436;2023-08-06T11:24:48;0.30;;;0.30;;
16963;SDS011;8598;50.508;10.436;2023-08-06T11:27:15;0.50;;;0.40;;
16963;SDS011;8598;50.508;10.436;2023-08-06T11:29:43;0.40;;;0.37;;
16963;SDS011;8598;50.508;10.436;2023-08-06T11:32:11;0.97;;;0.50;;
16963;SDS011;8598;50.508;10.436;2023-08-06T11:34:38;0.33;;;0.33;;
16963;SDS011;8598;50.508;10.436;2023-08-06T11:37:06;1.13;;;0.60;;
16963;SDS011;8598;50.508;10.436;2023-08-06T11:39:33;0.30;;;0.30;;
16963;SDS011;8598;50.508;10.436;2023-08-06T11:42:02;0.20;;;0.20;;
16963;SDS011;8598;50.508;10.436;2023-08-06T11:44:30;0.57;;;0.40;;
16963;SDS011;8598;50.508;10.436;2023-08-06T11:46:58;1.10;;;0.30;;
16963;SDS011;8598;50.508;10.436;2023-08-06T11:49:40;0.23;;;0.23;;
16963;SDS011;8598;50.508;10.436;2023-08-06T11:52:10;0.30;;;0.30;;
16963;SDS011;8598;50.508;10.436;2023-08-06T11:54:39;0.40;;;0.40;;
16963;SDS011;8598;50.508;10.436;2023-08-06T11:57:06;0.20;;;0.20;;
16963;SDS011;8598;50.508;10.436;2023-08-06T11:59:34;0.30;;;0.30;;
16963;SDS011;8598;50.508;10.436;2023-08-06T12:02:01;0.50;;;0.40;;
16963;SDS011;8598;50.508;10.436;2023-08-06T12:04:30;0.37;;;0.37;;
16963;SDS011;8598;50.508;10.436;2023-08-06T12:07:05;0.30;;;0.30;;
16963;SDS011;8598;50.508;10.436;2023-08-06T12:09:33;1.90;;;0.30;;
16963;SDS011;8598;50.508;10.436;2023-08-06T12:12:01;0.30;;;0.30;;
16963;SDS011;8598;50.508;10.436;2023-08-06T12:14:28;0.40;;;0.40;;
16963;SDS011;8598;50.508;10.436;2023-08-06T12:16:55;0.50;;;0.30;;
16963;SDS011;8598;50.508;10.436;2023-08-06T12:19:21;0.30;;;0.30;;
16963;SDS011;8598;50.508;10.436;2023-08-06T12:21:48;0.30;;;0.30;;
16963;SDS011;8598;50.508;10.436;2023-08-06T12:24:16;0.30;;;0.30;;
16963;SDS011;8598;50.508;10.436;2023-08-06T12:26:43;0.50;;;0.50;;
16963;SDS011;8598;50.508;10.436;2023-08-06T12:29:09;0.30;;;0.30;;
16963;SDS011;8598;50.508;10.436;2023-08-06T12:31:36;0.40;;;0.30;;
16963;SDS011;8598;50.508;10.436;2023-08-06T12:34:03;0.30;;;0.30;;
16963;SDS011;8598;50.508;10.436;2023-08-06T12:36:29;1.43;;;0.30;;
16963;SDS011;8598;50.508;10.436;2023-08-06T12:38:56;0.87;;;0.40;;
16963;SDS011;8598;50.508;10.436;2023-08-06T12:41:24;0.50;;;0.40;;
16963;SDS011;8598;50.508;10.436;2023-08-06T12:43:51;1.13;;;0.60;;
16963;SDS011;8598;50.508;10.436;2023-08-06T12:46:17;0.63;;;0.63;;
16963;SDS011;8598;50.508;10.436;2023-08-06T12:48:44;0.73;;;0.30;;
16963;SDS011;8598;50.508;10.436;2023-08-06T12:51:11;0.93;;;0.70;;
16963;SDS011;8598;50.508;10.436;2023-08-06T12:53:37;0.70;;;0.63;;
16963;SDS011;8598;50.508;10.436;2023-08-06T12:56:04;0.80;;;0.80;;
16963;SDS011;8598;50.508;10.436;2023-08-06T12:58:32;3.80;;;0.90;;
16963;SDS011;8598;50.508;10.436;2023-08-06T13:00:59;2.83;;;1.10;;
16963;SDS011;8598;50.508;10.436;2023-08-06T13:03:26;1.63;;;1.43;;
16963;SDS011;8598;50.508;10.436;2023-08-06T13:05:52;2.73;;;1.23;;
16963;SDS011;8598;50.508;10.436;2023-08-06T13:08:19;4.30;;;3.70;;
16963;SDS011;8598;50.508;10.436;2023-08-06T13:10:46;1.83;;;1.10;;
16963;SDS011;8598;50.508;10.436;2023-08-06T13:13:12;0.60;;;0.60;;
16963;SDS011;8598;50.508;10.436;2023-08-06T13:15:40;1.00;;;1.00;;
16963;SDS011;8598;50.508;10.436;2023-08-06T13:18:07;0.90;;;0.90;;
16963;SDS011;8598;50.508;10.436;2023-08-06T13:20:34;1.13;;;0.73;;
16963;SDS011;8598;50.508;10.436;2023-08-06T13:23:00;0.70;;;0.70;;
16963;SDS011;8598;50.508;10.436;2023-08-06T13:25:27;0.80;;;0.60;;
16963;SDS011;8598;50.508;10.436;2023-08-06T13:27:54;0.50;;;0.50;;
16963;SDS011;8598;50.508;10.436;2023-08-06T13:30:21;0.40;;;0.40;;
16963;SDS011;8598;50.508;10.436;2023-08-06T13:32:49;0.57;;;0.57;;
16963;SDS011;8598;50.508;10.436;2023-08-06T13:35:16;0.73;;;0.70;;
16963;SDS011;8598;50.508;10.436;2023-08-06T13:37:42;0.57;;;0.57;;
16963;SDS011;8598;50.508;10.436;2023-08-06T13:40:09;1.55;;;1.45;;
16963;SDS011;8598;50.508;10.436;2023-08-06T13:42:36;0.57;;;0.57;;
16963;SDS011;8598;50.508;10.436;2023-08-06T13:45:03;4.67;;;2.10;;
16963;SDS011;8598;50.508;10.436;2023-08-06T13:47:30;1.50;;;1.40;;
16963;SDS011;8598;50.508;10.436;2023-08-06T13:49:59;1.00;;;1.00;;
16963;SDS011;8598;50.508;10.436;2023-08-06T13:52:26;0.77;;;0.77;;
16963;SDS011;8598;50.508;10.436;2023-08-06T13:54:52;1.73;;;1.33;;
16963;SDS011;8598;50.508;10.436;2023-08-06T13:57:19;1.17;;;1.07;;
16963;SDS011;8598;50.508;10.436;2023-08-06T13:59:46;1.70;;;0.60;;
16963;SDS011;8598;50.508;10.436;2023-08-06T14:02:12;1.50;;;0.60;;
16963;SDS011;8598;50.508;10.436;2023-08-06T14:04:39;0.67;;;0.67;;
16963;SDS011;8598;50.508;10.436;2023-08-06T14:07:07;1.03;;;1.00;;
16963;SDS011;8598;50.508;10.436;2023-08-06T14:09:34;0.70;;;0.70;;
16963;SDS011;8598;50.508;10.436;2023-08-06T14:12:01;0.63;;;0.63;;
16963;SDS011;8598;50.508;10.436;2023-08-06T14:14:28;0.40;;;0.40;;
16963;SDS011;8598;50.508;10.436;2023-08-06T14:16:55;0.60;;;0.60;;
16963;SDS011;8598;50.508;10.436;2023-08-06T14:19:22;0.63;;;0.60;;
16963;SDS011;8598;50.508;10.436;2023-08-06T14:21:49;1.07;;;0.97;;
16963;SDS011;8598;50.508;10.436;2023-08-06T14:24:17;0.80;;;0.80;;
16963;SDS011;8598;50.508;10.436;2023-08-06T14:26:43;3.30;;;1.07;;
16963;SDS011;8598;50.508;10.436;2023-08-06T14:29:10;1.37;;;1.30;;
16963;SDS011;8598;50.508;10.436;2023-08-06T14:31:38;1.33;;;1.23;;
16963;SDS011;8598;50.508;10.436;2023-08-06T14:34:05;2.10;;;1.63;;
16963;SDS011;8598;50.508;10.436;2023-08-06T14:36:32;1.20;;;1.10;;
16963;SDS011;8598;50.508;10.436;2023-08-06T14:38:59;1.00;;;0.90;;
16963;SDS011;8598;50.508;10.436;2023-08-06T14:41:27;1.17;;;1.10;;
16963;SDS011;8598;50.508;10.436;2023-08-06T14:43:54;1.43;;;1.33;;
16963;SDS011;8598;50.508;10.436;2023-08-06T14:46:20;2.20;;;1.60;;
16963;SDS011;8598;50.508;10.436;2023-08-06T14:48:47;1.87;;;1.77;;
16963;SDS011;8598;50.508;10.436;2023-08-06T14:51:14;1.90;;;1.00;;